Heath, Montana
Current Conditions -  °F | °C
As of 5:54 PM on Saturday 20 Dec 2014 (Local Time) from KLWT Reporting Station
Clear Clear  
Wind Chill: 27°   Ceiling: Unl
Heat Index: 36°   Visibility: 10mi
Dew Point: 25°   Wind: 15mph
Humidity: 64%   Direction: 220°SW
Pressure: 29.73"   Gusts: NA
Location:  46.9245°N, 109.389°W
Report Text: KLWT 210054Z AUTO 22013KT 10SM CLR 02/M04 A2973 RMK AO2 SLP088 T00221039
Loading
Personal Weather Stations






























Interactive Weather Map New forecast layout! Learn more

10-Day Weather Forecast

Advertisements
Track Severe Weather on mobile